Time;durP1;ratioP1;P1;durP2;ratioP2;P2;SDS_P1;SDS_P2;PMS_P1;PMS_P2;Temp;Humidity;BMP_temperature;BMP_pressure;BME280_temperature;BME280_humidity;BME280_pressure;Samples;Min_cycle;Max_cycle;Signal;HPM_P1;HPM_P2
2021/04/14 00:02:10;;;;;;;3.93;3.30;;;4.80;67.40;;;;;;5047953;28;20461;-47
2021/04/14 00:04:36;;;;;;;3.40;3.10;;;4.70;67.40;;;;;;5049784;28;20454;-48
2021/04/14 00:07:03;;;;;;;4.50;4.10;;;4.70;67.50;;;;;;5044857;28;20491;-47
2021/04/14 00:09:30;;;;;;;4.40;4.00;;;4.70;67.60;;;;;;5044660;28;20951;-47
2021/04/14 00:11:57;;;;;;;5.33;4.60;;;4.70;67.90;;;;;;5061979;28;20805;-47
2021/04/14 00:14:25;;;;;;;4.83;3.40;;;4.70;67.90;;;;;;5042977;28;20541;-47
2021/04/14 00:16:51;;;;;;;9.40;4.50;;;4.60;67.90;;;;;;5044512;28;20496;-47
2021/04/14 00:19:18;;;;;;;3.37;3.07;;;4.60;67.90;;;;;;5046178;28;20493;-47
2021/04/14 00:21:45;;;;;;;4.73;3.70;;;4.60;67.90;;;;;;5048824;28;20461;-47
2021/04/14 00:24:13;;;;;;;6.80;3.90;;;4.50;68.00;;;;;;5046679;28;20549;-47
2021/04/14 00:26:46;;;;;;;4.63;4.13;;;4.50;68.30;;;;;;5042302;28;21034;-47
2021/04/14 00:29:12;;;;;;;6.67;4.93;;;4.40;68.50;;;;;;5045202;28;20447;-47
2021/04/14 00:31:39;;;;;;;6.43;4.60;;;4.40;68.60;;;;;;5048567;28;20450;-47
2021/04/14 00:34:07;;;;;;;5.50;4.80;;;4.40;68.60;;;;;;5063012;28;20459;-47
2021/04/14 00:36:38;;;;;;;5.97;4.50;;;4.40;68.60;;;;;;5047887;28;20458;-47
2021/04/14 00:39:09;;;;;;;4.50;3.50;;;4.40;69.20;;;;;;5049290;28;20550;-47
2021/04/14 00:41:35;;;;;;;6.37;4.17;;;4.40;69.00;;;;;;5048139;28;20794;-47
2021/04/14 00:44:03;;;;;;;6.57;3.57;;;4.40;68.80;;;;;;5049998;28;20469;-47
2021/04/14 00:46:29;;;;;;;8.10;3.60;;;4.40;68.80;;;;;;5044055;28;20495;-47
2021/04/14 00:48:56;;;;;;;3.80;3.50;;;4.40;68.90;;;;;;5048067;28;20486;-47
2021/04/14 00:51:22;;;;;;;3.80;3.20;;;4.40;68.70;;;;;;5046670;28;20986;-47
2021/04/14 00:53:49;;;;;;;3.70;3.40;;;4.40;68.70;;;;;;5046770;28;20814;-47
2021/04/14 00:56:15;;;;;;;4.83;3.10;;;4.40;68.80;;;;;;5047596;28;21077;-47
2021/04/14 00:58:42;;;;;;;4.80;4.33;;;4.30;68.80;;;;;;5046115;28;20462;-47
2021/04/14 01:01:08;;;;;;;6.80;3.67;;;4.30;68.80;;;;;;5061760;28;20471;-47
2021/04/14 01:03:36;;;;;;;4.20;3.90;;;4.20;69.00;;;;;;5044778;28;20458;-47
2021/04/14 01:06:20;;;;;;;4.83;4.33;;;4.20;69.00;;;;;;5043959;28;20485;-47
2021/04/14 01:08:46;;;;;;;5.33;3.77;;;4.10;68.90;;;;;;5046327;28;20485;-47
2021/04/14 01:11:14;;;;;;;4.40;4.00;;;4.00;69.00;;;;;;5045375;28;20451;-47
2021/04/14 01:13:41;;;;;;;4.00;3.47;;;4.00;69.00;;;;;;5040946;28;20450;-47
2021/04/14 01:16:07;;;;;;;3.77;3.40;;;3.90;69.10;;;;;;5046598;28;20489;-47
2021/04/14 01:18:36;;;;;;;4.00;3.60;;;3.90;69.10;;;;;;5061217;28;20506;-47
2021/04/14 01:21:09;;;;;;;5.03;4.53;;;3.90;69.10;;;;;;5046966;28;20914;-47
2021/04/14 01:23:35;;;;;;;4.03;3.73;;;3.80;69.10;;;;;;5042406;28;20854;-47
2021/04/14 01:26:02;;;;;;;7.60;4.63;;;3.80;69.20;;;;;;5045007;28;21014;-47
2021/04/14 01:28:33;;;;;;;4.40;4.00;;;3.70;69.30;;;;;;5046827;28;20504;-47
2021/04/14 01:31:00;;;;;;;4.30;4.00;;;3.70;69.40;;;;;;5044512;28;20461;-47
2021/04/14 01:33:30;;;;;;;4.33;3.93;;;3.60;69.50;;;;;;5047122;28;20468;-47
2021/04/14 01:35:56;;;;;;;7.97;4.70;;;3.60;69.70;;;;;;5044194;28;20461;-47
2021/04/14 01:38:23;;;;;;;3.93;3.63;;;3.50;69.90;;;;;;5046613;28;20455;-47
2021/04/14 01:40:52;;;;;;;3.90;3.50;;;3.50;70.10;;;;;;5045474;28;20458;-47
2021/04/14 01:43:18;;;;;;;7.70;4.20;;;3.50;70.10;;;;;;5046341;28;20794;-47
2021/04/14 01:45:46;;;;;;;4.67;4.23;;;3.50;70.20;;;;;;5046192;28;20466;-47
2021/04/14 01:48:15;;;;;;;4.37;4.07;;;3.50;70.30;;;;;;5061339;28;20893;-47
2021/04/14 01:50:41;;;;;;;7.17;4.00;;;3.50;70.30;;;;;;5046941;28;20459;-47
2021/04/14 01:53:10;;;;;;;5.60;5.10;;;;;;;;;;5043720;28;20469;-47
2021/04/14 01:55:37;;;;;;;4.10;3.70;;;3.50;70.40;;;;;;5041508;28;20454;-47
2021/04/14 01:58:04;;;;;;;3.70;3.50;;;3.40;70.50;;;;;;5046147;28;20459;-47
2021/04/14 02:00:35;;;;;;;4.30;3.90;;;3.40;70.50;;;;;;5043776;28;20966;-47
2021/04/14 02:03:02;;;;;;;4.30;3.90;;;3.40;70.50;;;;;;5063583;28;20467;-47
2021/04/14 02:05:31;;;;;;;6.30;4.47;;;3.40;70.50;;;;;;5043794;28;20462;-47
2021/04/14 02:07:58;;;;;;;5.80;3.67;;;3.40;70.50;;;;;;5043791;28;20483;-46
2021/04/14 02:10:27;;;;;;;4.10;3.80;;;3.40;70.80;;;;;;5062469;28;21218;-45
2021/04/14 02:12:56;;;;;;;5.43;3.90;;;3.40;70.90;;;;;;5044993;28;20951;-46
2021/04/14 02:15:27;;;;;;;4.77;4.37;;;3.30;71.00;;;;;;5044931;28;20500;-46
2021/04/14 02:17:55;;;;;;;6.47;3.80;;;3.30;71.00;;;;;;5044848;28;20477;-46
2021/04/14 02:20:22;;;;;;;5.77;4.93;;;3.30;71.20;;;;;;5041825;28;20462;-45
2021/04/14 02:22:49;;;;;;;5.70;4.17;;;3.30;71.30;;;;;;5048448;28;20858;-45
2021/04/14 02:25:16;;;;;;;5.53;3.93;;;3.40;71.40;;;;;;5045960;28;20465;-45
2021/04/14 02:27:43;;;;;;;5.77;4.13;;;3.40;71.30;;;;;;5043376;28;20578;-45
2021/04/14 02:30:13;;;;;;;4.70;4.10;;;3.40;71.30;;;;;;5044449;28;20458;-46
2021/04/14 02:32:40;;;;;;;7.00;5.17;;;3.50;71.20;;;;;;5043595;28;20454;-45
2021/04/14 02:35:07;;;;;;;5.30;4.40;;;3.40;71.20;;;;;;5044727;28;20550;-45
2021/04/14 02:37:33;;;;;;;4.37;3.83;;;3.40;71.20;;;;;;5044508;28;21134;-46
2021/04/14 02:39:59;;;;;;;4.40;4.00;;;3.40;71.20;;;;;;5045973;28;20897;-45
2021/04/14 02:42:26;;;;;;;7.00;4.70;;;3.40;71.20;;;;;;5047167;28;20794;-46
2021/04/14 02:44:53;;;;;;;24.97;14.57;;;3.40;71.40;;;;;;5046566;28;20805;-46
2021/04/14 02:47:19;;;;;;;14.00;8.90;;;3.40;71.40;;;;;;5046746;28;20488;-45
2021/04/14 02:49:45;;;;;;;8.63;6.30;;;3.40;71.40;;;;;;5059285;28;20986;-46
2021/04/14 02:52:11;;;;;;;6.80;5.93;;;3.40;71.30;;;;;;5044726;28;20545;-46
2021/04/14 02:54:37;;;;;;;8.37;5.40;;;3.40;71.30;;;;;;5046351;28;20482;-46
2021/04/14 02:57:04;;;;;;;6.57;5.93;;;3.40;71.40;;;;;;5047049;28;20469;-46
2021/04/14 02:59:30;;;;;;;4.73;4.40;;;3.40;71.40;;;;;;5044133;28;20466;-45
2021/04/14 03:01:58;;;;;;;6.13;5.53;;;3.40;71.30;;;;;;5048803;28;20547;-48
2021/04/14 03:04:24;;;;;;;7.90;5.00;;;3.40;71.40;;;;;;5063205;28;20956;-48
2021/04/14 03:06:50;;;;;;;8.73;5.20;;;3.40;71.50;;;;;;5050018;28;20489;-48
2021/04/14 03:09:17;;;;;;;7.10;4.80;;;3.40;71.60;;;;;;5050400;28;20977;-48
2021/04/14 03:11:43;;;;;;;5.93;5.13;;;3.40;71.80;;;;;;5049636;28;20468;-48
2021/04/14 03:14:09;;;;;;;5.30;4.80;;;3.40;71.90;;;;;;5050532;28;20492;-48
2021/04/14 03:16:35;;;;;;;5.83;5.30;;;3.40;72.00;;;;;;5048956;28;21002;-48
2021/04/14 03:19:03;;;;;;;6.07;4.97;;;3.40;72.10;;;;;;5047289;28;21012;-48
2021/04/14 03:21:30;;;;;;;5.83;5.33;;;3.40;72.20;;;;;;5050845;28;20954;-49
2021/04/14 03:23:56;;;;;;;5.93;5.43;;;3.40;72.40;;;;;;5049298;28;20985;-49
2021/04/14 03:26:24;;;;;;;6.20;5.50;;;3.40;72.30;;;;;;5047564;28;20556;-49
2021/04/14 03:28:51;;;;;;;6.30;5.70;;;3.40;72.30;;;;;;5045538;28;20451;-49
2021/04/14 03:31:19;;;;;;;6.60;5.70;;;3.40;72.30;;;;;;5044627;28;20458;-49
2021/04/14 03:33:45;;;;;;;6.03;5.53;;;3.40;72.40;;;;;;5050186;28;20473;-49
2021/04/14 03:36:11;;;;;;;6.23;5.63;;;3.40;72.40;;;;;;5062112;28;20454;-49
2021/04/14 03:38:38;;;;;;;8.00;6.47;;;3.40;72.40;;;;;;5047974;28;20463;-49
2021/04/14 03:41:04;;;;;;;6.40;5.63;;;3.40;72.30;;;;;;5046903;28;20461;-49
2021/04/14 03:43:31;;;;;;;5.97;5.47;;;3.40;72.40;;;;;;5046435;28;20462;-49
2021/04/14 03:45:59;;;;;;;7.17;6.17;;;3.40;72.50;;;;;;5046973;28;20471;-49
2021/04/14 03:48:26;;;;;;;8.90;5.60;;;3.30;72.50;;;;;;5047115;28;20489;-49
2021/04/14 03:50:53;;;;;;;7.53;6.20;;;3.30;72.60;;;;;;5049433;28;20482;-49
2021/04/14 03:53:29;;;;;;;7.07;6.30;;;3.30;72.60;;;;;;5046758;28;20471;-49
2021/04/14 03:55:59;;;;;;;8.40;7.30;;;3.30;72.60;;;;;;5048666;28;20454;-49
2021/04/14 03:58:27;;;;;;;7.10;6.50;;;3.20;72.70;;;;;;5048042;28;20459;-49
2021/04/14 04:00:56;;;;;;;7.27;5.80;;;3.20;72.80;;;;;;5048007;28;20465;-49
2021/04/14 04:03:24;;;;;;;7.27;6.57;;;3.20;72.90;;;;;;5048918;28;20500;-49
2021/04/14 04:05:51;;;;;;;6.63;6.03;;;3.10;73.10;;;;;;5047018;28;20522;-49
2021/04/14 04:08:18;;;;;;;6.20;5.60;;;3.10;73.10;;;;;;5046818;28;20463;-49
2021/04/14 04:10:44;;;;;;;8.17;5.80;;;3.10;73.20;;;;;;5043743;28;20568;-49
2021/04/14 04:13:13;;;;;;;6.93;6.40;;;3.10;73.30;;;;;;5048138;28;20875;-49
2021/04/14 04:15:39;;;;;;;7.90;6.80;;;3.10;73.40;;;;;;5044990;28;20486;-48
2021/04/14 04:18:06;;;;;;;7.00;6.30;;;3.10;73.50;;;;;;5049547;28;20447;-48
2021/04/14 04:20:33;;;;;;;6.30;5.70;;;3.10;73.60;;;;;;5046986;28;20505;-48
2021/04/14 04:23:01;;;;;;;8.50;6.23;;;3.00;73.60;;;;;;5046676;28;20526;-49
2021/04/14 04:25:29;;;;;;;7.20;6.20;;;3.00;73.70;;;;;;5048095;28;20467;-49
2021/04/14 04:27:55;;;;;;;8.00;7.20;;;3.00;73.80;;;;;;5049702;28;20486;-49
2021/04/14 04:30:22;;;;;;;7.43;6.63;;;3.00;73.90;;;;;;5044973;28;20472;-49
2021/04/14 04:32:49;;;;;;;9.93;7.70;;;3.00;74.00;;;;;;5047322;28;20454;-49
2021/04/14 04:35:16;;;;;;;7.10;6.40;;;3.00;74.10;;;;;;5047278;28;20465;-49
2021/04/14 04:37:46;;;;;;;8.03;7.23;;;3.00;74.10;;;;;;5043974;28;21275;-49
2021/04/14 04:40:13;;;;;;;8.53;7.37;;;3.00;74.20;;;;;;5047423;28;20522;-49
2021/04/14 04:42:40;;;;;;;10.73;7.37;;;3.00;74.30;;;;;;5049149;28;20538;-49
2021/04/14 04:45:08;;;;;;;8.97;6.90;;;3.00;74.30;;;;;;5041968;28;20468;-49
2021/04/14 04:47:34;;;;;;;9.60;7.20;;;2.90;74.50;;;;;;5047289;28;20928;-49
2021/04/14 04:50:01;;;;;;;7.60;6.80;;;2.90;74.60;;;;;;5046687;28;20465;-49
2021/04/14 04:52:27;;;;;;;8.17;7.37;;;3.00;74.70;;;;;;5048385;28;20625;-48
2021/04/14 04:54:54;;;;;;;7.87;6.97;;;3.00;74.70;;;;;;5044649;28;20462;-48
2021/04/14 04:57:20;;;;;;;9.53;8.53;;;3.00;74.80;;;;;;5042457;28;20962;-49
2021/04/14 04:59:47;;;;;;;10.40;7.73;;;3.00;74.80;;;;;;5048289;28;20462;-49
2021/04/14 05:02:13;;;;;;;8.53;7.43;;;3.00;74.90;;;;;;5045224;28;20970;-49
2021/04/14 05:04:41;;;;;;;8.70;7.80;;;3.00;74.90;;;;;;5046817;28;20462;-49
2021/04/14 05:07:07;;;;;;;10.13;8.67;;;3.00;75.00;;;;;;5044367;28;20486;-49
2021/04/14 05:09:34;;;;;;;10.90;8.63;;;3.00;75.00;;;;;;5048451;28;20456;-49
2021/04/14 05:12:00;;;;;;;10.80;9.47;;;3.00;75.20;;;;;;5047867;28;20772;-49
2021/04/14 05:14:26;;;;;;;10.03;9.03;;;3.00;75.20;;;;;;5045823;28;20493;-49
2021/04/14 05:16:52;;;;;;;15.83;9.60;;;3.00;75.20;;;;;;5047122;28;20499;-48
2021/04/14 05:19:19;;;;;;;10.87;9.73;;;3.10;75.30;;;;;;5044440;28;20550;-48
2021/04/14 05:21:46;;;;;;;14.53;10.00;;;3.10;75.30;;;;;;5047914;28;20561;-48
2021/04/14 05:24:13;;;;;;;14.30;9.67;;;3.10;75.30;;;;;;5045691;28;20459;-48
2021/04/14 05:26:39;;;;;;;16.00;11.00;;;3.10;75.30;;;;;;5047637;28;21108;-48
2021/04/14 05:29:06;;;;;;;13.20;11.30;;;3.20;75.20;;;;;;5048721;28;20443;-48
2021/04/14 05:31:36;;;;;;;12.03;10.70;;;3.20;75.20;;;;;;5044798;28;20542;-48
2021/04/14 05:34:02;;;;;;;10.57;9.50;;;3.20;75.30;;;;;;5047744;28;20541;-48
2021/04/14 05:36:29;;;;;;;14.20;10.70;;;3.20;75.20;;;;;;5047050;28;20601;-49
2021/04/14 05:38:56;;;;;;;13.73;10.40;;;3.30;75.20;;;;;;5048092;28;20508;-49
2021/04/14 05:41:22;;;;;;;14.90;9.93;;;3.30;75.20;;;;;;5047486;28;20461;-49
2021/04/14 05:43:49;;;;;;;9.57;8.67;;;3.40;75.20;;;;;;5046913;28;20537;-49
2021/04/14 05:46:18;;;;;;;13.53;9.00;;;3.40;74.90;;;;;;5046457;28;20744;-49
2021/04/14 05:48:46;;;;;;;12.10;7.10;;;3.50;74.70;;;;;;5044781;28;20465;-49
2021/04/14 05:51:17;;;;;;;14.97;8.10;;;3.60;74.30;;;;;;5047809;28;20471;-49
2021/04/14 05:53:46;;;;;;;7.70;7.00;;;3.60;74.20;;;;;;5059620;28;20461;-49
2021/04/14 05:56:14;;;;;;;8.87;6.90;;;3.70;74.10;;;;;;5048024;28;20466;-49
2021/04/14 05:58:40;;;;;;;8.43;7.47;;;3.70;74.00;;;;;;5047180;28;20467;-48
2021/04/14 06:01:09;;;;;;;8.90;7.10;;;3.70;74.10;;;;;;5045451;28;20948;-48
2021/04/14 06:03:36;;;;;;;11.67;8.00;;;3.70;74.20;;;;;;5046413;28;20982;-48
2021/04/14 06:06:02;;;;;;;12.33;6.70;;;3.80;74.20;;;;;;5045145;28;20459;-49
2021/04/14 06:08:29;;;;;;;8.00;6.40;;;3.80;74.20;;;;;;5045373;28;20457;-49
2021/04/14 06:11:01;;;;;;;8.17;5.87;;;3.80;74.30;;;;;;5046142;28;20767;-48
2021/04/14 06:13:28;;;;;;;9.50;7.33;;;3.80;74.50;;;;;;5046211;28;20467;-48
2021/04/14 06:15:54;;;;;;;13.30;7.30;;;3.90;74.40;;;;;;5046911;28;20478;-48
2021/04/14 06:18:21;;;;;;;10.80;7.17;;;4.00;74.30;;;;;;5045199;28;20466;-50
2021/04/14 06:20:49;;;;;;;8.47;7.10;;;4.10;73.80;;;;;;5044837;28;20542;-49
2021/04/14 06:23:19;;;;;;;8.40;7.40;;;4.20;73.60;;;;;;5046267;28;21025;-48
2021/04/14 06:28:27;;;;;;;8.83;7.10;;;4.40;73.30;;;;;;5046910;28;20482;-49
2021/04/14 06:30:54;;;;;;;8.60;7.70;;;4.50;73.10;;;;;;5042897;28;20457;-49
2021/04/14 06:33:22;;;;;;;9.20;7.00;;;4.60;72.30;;;;;;5044028;28;20461;-49
2021/04/14 06:35:50;;;;;;;8.97;7.37;;;4.50;72.30;;;;;;5051695;28;20506;-49
2021/04/14 06:38:21;;;;;;;8.83;7.40;;;4.60;72.50;;;;;;5050187;28;20451;-49
2021/04/14 06:41:10;;;;;;;9.37;7.47;;;4.60;72.60;;;;;;5050607;28;20443;-49
2021/04/14 06:44:01;;;;;;;9.57;7.20;;;4.60;72.80;;;;;;5065976;28;20454;-49
2021/04/14 06:46:35;;;;;;;9.43;7.77;;;4.70;72.80;;;;;;5062535;28;20488;-49
2021/04/14 06:49:04;;;;;;;18.83;7.50;;;4.80;72.80;;;;;;5051406;28;20879;-49
2021/04/14 06:51:49;;;;;;;9.30;8.07;;;4.90;71.90;;;;;;5048602;28;20542;-49
2021/04/14 06:54:31;;;;;;;8.67;7.77;;;5.00;71.50;;;;;;5050039;28;20481;-49
2021/04/14 06:57:02;;;;;;;10.40;8.30;;;5.10;71.10;;;;;;5050381;28;20464;-49
2021/04/14 06:59:32;;;;;;;10.10;7.70;;;5.20;71.30;;;;;;5050380;28;20486;-49
2021/04/14 07:02:05;;;;;;;10.33;7.33;;;5.20;71.20;;;;;;5047482;28;20462;-49
2021/04/14 07:04:45;;;;;;;10.37;8.10;;;5.20;71.10;;;;;;5038784;28;20465;-48
2021/04/14 07:07:28;;;;;;;8.47;6.93;;;5.20;71.20;;;;;;5047958;28;20478;-49
2021/04/14 07:10:04;;;;;;;10.20;7.30;;;5.20;71.40;;;;;;5048500;28;20494;-48
2021/04/14 07:12:30;;;;;;;7.80;7.03;;;5.40;70.90;;;;;;5048227;28;20523;-48
2021/04/14 07:14:59;;;;;;;12.80;7.57;;;5.50;70.90;;;;;;5048290;28;20459;-48
2021/04/14 07:17:44;;;;;;;8.63;6.70;;;5.60;70.30;;;;;;5047834;28;20592;-49
2021/04/14 07:20:32;;;;;;;10.53;5.60;;;5.80;69.70;;;;;;5052924;28;20536;-48
2021/04/14 07:23:04;;;;;;;7.93;5.27;;;5.90;69.00;;;;;;5047431;28;20549;-48
2021/04/14 07:25:53;;;;;;;9.50;5.23;;;6.10;68.20;;;;;;5046758;28;21037;-48
2021/04/14 07:28:31;;;;;;;4.20;3.00;;;6.50;67.50;;;;;;5045868;28;20502;-48
2021/04/14 07:31:23;;;;;;;6.13;4.00;;;6.70;65.60;;;;;;5048902;28;21057;-49
2021/04/14 07:34:11;;;;;;;4.87;2.90;;;7.00;64.60;;;;;;5036640;28;20454;-48
2021/04/14 07:37:02;;;;;;;4.83;3.50;;;7.40;63.80;;;;;;5047039;28;20469;-49
2021/04/14 07:39:53;;;;;;;4.43;2.97;;;7.80;62.50;;;;;;5047936;28;20458;-49
2021/04/14 07:42:41;;;;;;;5.40;4.23;;;8.20;61.60;;;;;;5048775;28;21191;-49
2021/04/14 07:45:34;;;;;;;8.73;2.60;;;8.60;60.40;;;;;;5051484;28;20533;-49
2021/04/14 07:48:29;;;;;;;5.07;2.87;;;8.90;59.20;;;;;;5047762;28;20501;-49
2021/04/14 07:51:01;;;;;;;3.77;2.83;;;9.10;57.20;;;;;;5049569;28;20473;-49
2021/04/14 07:53:29;;;;;;;3.10;2.60;;;9.30;56.90;;;;;;5048411;28;21020;-50
2021/04/14 07:56:06;;;;;;;3.30;2.80;;;9.50;55.70;;;;;;5047316;28;20458;-49
2021/04/14 07:58:34;;;;;;;4.33;2.43;;;9.60;55.60;;;;;;5049304;28;20545;-49
2021/04/14 08:01:14;;;;;;;2.57;2.37;;;9.70;55.40;;;;;;5046633;28;20920;-49
2021/04/14 08:03:42;;;;;;;4.30;2.93;;;9.90;54.00;;;;;;5047615;28;20461;-50
2021/04/14 08:06:14;;;;;;;4.80;2.20;;;10.00;53.40;;;;;;5047322;28;20549;-50
2021/04/14 08:08:42;;;;;;;5.30;2.50;;;10.00;52.30;;;;;;5046239;28;20447;-50
2021/04/14 08:11:18;;;;;;;3.77;2.77;;;10.00;52.50;;;;;;5049629;28;20455;-50
2021/04/14 08:13:45;;;;;;;4.73;3.27;;;10.10;53.60;;;;;;5066986;28;20447;-49
2021/04/14 08:16:18;;;;;;;3.80;2.70;;;10.10;54.10;;;;;;5048948;28;20536;-49
2021/04/14 08:18:54;;;;;;;3.80;2.90;;;10.20;52.70;;;;;;5062730;28;20872;-49
2021/04/14 08:21:34;;;;;;;4.37;3.30;;;10.40;52.70;;;;;;5049654;28;20460;-50
2021/04/14 08:24:24;;;;;;;4.13;2.73;;;10.60;52.30;;;;;;5049650;28;20450;-49
2021/04/14 08:26:57;;;;;;;2.97;2.60;;;10.70;51.70;;;;;;5046302;28;20914;-49
2021/04/14 08:29:23;;;;;;;5.33;2.70;;;10.70;50.70;;;;;;5049694;28;20954;-49
2021/04/14 08:31:51;;;;;;;3.53;2.20;;;10.60;49.40;;;;;;5047660;28;20470;-49
2021/04/14 08:34:20;;;;;;;3.00;2.10;;;10.40;49.80;;;;;;5059432;28;20965;-49
2021/04/14 08:36:52;;;;;;;2.73;2.53;;;10.20;50.70;;;;;;5048985;28;20503;-49
2021/04/14 08:39:23;;;;;;;3.20;2.40;;;9.90;50.10;;;;;;5049690;28;20451;-49
2021/04/14 08:41:50;;;;;;;5.17;2.50;;;9.70;50.80;;;;;;5046832;28;20638;-49
2021/04/14 08:44:30;;;;;;;2.70;1.90;;;9.50;51.20;;;;;;5049161;28;20995;-49
2021/04/14 08:47:11;;;;;;;3.93;1.90;;;9.40;51.70;;;;;;5049546;28;20482;-49
2021/04/14 08:49:39;;;;;;;3.27;2.10;;;9.70;51.40;;;;;;5045830;28;20442;-49
2021/04/14 08:52:17;;;;;;;4.00;1.80;;;10.20;49.50;;;;;;5048456;28;20442;-49
2021/04/14 08:54:44;;;;;;;2.70;2.30;;;10.70;47.90;;;;;;5048032;28;20455;-49
2021/04/14 08:57:11;;;;;;;12.13;8.07;;;11.20;46.50;;;;;;5048754;28;20449;-49
2021/04/14 08:59:39;;;;;;;4.20;3.30;;;11.80;45.00;;;;;;5046864;28;20450;-49
2021/04/14 09:02:08;;;;;;;4.40;2.27;;;12.20;44.70;;;;;;5046701;28;20472;-49
2021/04/14 09:04:36;;;;;;;3.83;2.47;;;12.70;42.60;;;;;;5044921;28;20470;-50
2021/04/14 09:07:04;;;;;;;2.27;1.70;;;13.10;41.90;;;;;;5050146;28;20514;-50
2021/04/14 09:09:44;;;;;;;3.40;2.57;;;13.50;40.80;;;;;;5047318;28;20450;-50
2021/04/14 09:12:11;;;;;;;3.23;1.83;;;13.90;40.70;;;;;;5048415;28;20454;-50
2021/04/14 09:14:37;;;;;;;6.37;3.00;;;14.30;40.70;;;;;;5049779;28;20446;-50
2021/04/14 09:17:19;;;;;;;3.80;1.90;;;14.50;40.30;;;;;;5048687;28;20572;-50
2021/04/14 09:19:48;;;;;;;3.90;1.97;;;14.40;40.10;;;;;;5061370;28;21027;-50
2021/04/14 09:22:15;;;;;;;2.83;2.23;;;14.40;40.00;;;;;;5044849;28;20458;-50
2021/04/14 09:25:26;;;;;;;2.50;1.53;;;14.80;38.60;;;;;;5045424;28;20465;-50
2021/04/14 09:28:00;;;;;;;2.13;1.63;;;15.50;37.00;;;;;;5045674;28;20494;-50
2021/04/14 09:30:35;;;;;;;3.40;2.10;;;16.00;35.80;;;;;;5045459;28;20461;-50
2021/04/14 09:33:05;;;;;;;3.30;2.00;;;16.50;36.00;;;;;;5043780;28;20504;-50
2021/04/14 09:35:31;;;;;;;2.03;1.60;;;17.10;35.30;;;;;;5041380;28;20457;-50
2021/04/14 09:41:36;;;;;;;2.40;1.83;;;;;;;;;;5048235;28;20537;-50
2021/04/14 09:44:31;;;;;;;2.27;1.40;;;18.30;31.30;;;;;;5047538;28;20546;-51
2021/04/14 09:47:27;;;;;;;1.80;1.40;;;18.00;31.30;;;;;;5047143;28;20830;-50
2021/04/14 09:49:57;;;;;;;1.93;1.40;;;17.40;31.70;;;;;;5049043;28;20451;-49
2021/04/14 09:52:33;;;;;;;2.33;1.30;;;17.40;30.50;;;;;;5049994;28;20458;-50
2021/04/14 09:55:18;;;;;;;2.20;1.83;;;17.80;29.70;;;;;;5047099;28;20454;-50
2021/04/14 09:57:47;;;;;;;3.60;2.47;;;18.30;31.20;;;;;;5048653;28;20820;-49
2021/04/14 10:00:18;;;;;;;2.23;1.80;;;18.50;31.40;;;;;;5050392;28;20826;-50
2021/04/14 10:02:46;;;;;;;3.20;1.40;;;18.70;30.90;;;;;;5048072;28;20783;-49
2021/04/14 10:05:16;;;;;;;5.60;3.90;;;19.00;29.80;;;;;;5051577;28;20454;-49
2021/04/14 10:07:45;;;;;;;6.50;5.50;;;19.50;28.60;;;;;;5048775;28;20570;-50
2021/04/14 10:10:21;;;;;;;4.57;3.50;;;20.00;27.90;;;;;;5047473;28;20897;-50
2021/04/14 10:12:49;;;;;;;2.97;1.80;;;;;;;;;;5047617;28;20537;-50
2021/04/14 10:15:16;;;;;;;3.30;1.87;;;19.90;28.20;;;;;;5061435;28;20500;-50
2021/04/14 10:17:44;;;;;;;3.27;2.23;;;19.10;29.40;;;;;;5047416;28;20512;-50
2021/04/14 10:20:24;;;;;;;2.93;2.40;;;18.20;30.30;;;;;;5043190;28;20465;-50
2021/04/14 10:22:52;;;;;;;5.77;2.50;;;17.30;32.10;;;;;;5045446;28;20906;-50
2021/04/14 10:25:25;;;;;;;2.70;1.93;;;16.50;33.70;;;;;;5045645;28;20534;-50
2021/04/14 10:28:22;;;;;;;3.23;1.87;;;15.80;34.50;;;;;;5049889;28;20997;-50
2021/04/14 10:31:02;;;;;;;3.30;1.83;;;15.00;35.90;;;;;;5047686;28;20463;-50
2021/04/14 10:33:28;;;;;;;2.83;2.37;;;14.40;35.80;;;;;;5046794;28;20451;-50
2021/04/14 10:35:55;;;;;;;3.60;2.70;;;13.80;35.30;;;;;;5045699;28;20998;-50
2021/04/14 10:38:32;;;;;;;6.53;1.93;;;13.40;36.50;;;;;;5047638;28;21046;-50
2021/04/14 10:41:00;;;;;;;4.70;2.10;;;13.00;37.80;;;;;;5047265;28;21002;-50
2021/04/14 10:43:28;;;;;;;2.80;2.53;;;12.70;38.70;;;;;;5060519;28;20518;-50
2021/04/14 10:46:04;;;;;;;5.33;2.37;;;12.50;39.40;;;;;;5062479;28;20469;-50
2021/04/14 10:48:35;;;;;;;2.80;2.30;;;12.20;38.40;;;;;;5047321;28;20491;-50
2021/04/14 10:51:08;;;;;;;3.10;2.43;;;12.00;38.90;;;;;;5044654;28;20951;-50
2021/04/14 10:53:41;;;;;;;4.67;4.03;;;11.80;39.20;;;;;;5043284;28;20472;-50
2021/04/14 10:56:26;;;;;;;4.67;2.43;;;12.00;39.80;;;;;;5046135;28;20451;-50
2021/04/14 10:58:54;;;;;;;2.83;2.20;;;12.70;39.10;;;;;;5061288;28;21014;-50
2021/04/14 11:01:35;;;;;;;2.43;1.77;;;13.20;38.30;;;;;;5047881;28;20454;-50
2021/04/14 11:04:05;;;;;;;2.20;2.00;;;13.40;38.20;;;;;;5045454;28;20469;-50
2021/04/14 11:06:33;;;;;;;2.67;2.13;;;13.40;37.30;;;;;;5041984;28;21018;-50
2021/04/14 11:09:00;;;;;;;5.30;3.63;;;13.20;35.90;;;;;;5045980;28;20465;-50
2021/04/14 11:11:27;;;;;;;4.10;2.53;;;13.10;35.50;;;;;;5047207;28;20450;-50
2021/04/14 11:13:53;;;;;;;6.70;2.80;;;12.90;36.00;;;;;;5044675;28;20983;-50
2021/04/14 11:16:20;;;;;;;4.70;3.40;;;12.70;36.70;;;;;;5044992;28;20974;-50
2021/04/14 11:18:47;;;;;;;8.33;3.80;;;12.70;37.40;;;;;;5046119;28;20466;-50
2021/04/14 11:21:23;;;;;;;5.43;2.73;;;12.70;37.90;;;;;;5046308;28;20984;-50
2021/04/14 11:24:02;;;;;;;3.00;2.30;;;13.00;37.50;;;;;;5049703;28;20560;-51
2021/04/14 11:26:29;;;;;;;2.67;2.00;;;13.10;37.60;;;;;;5048215;28;20462;-50
2021/04/14 11:28:56;;;;;;;4.10;3.43;;;13.10;37.50;;;;;;5050780;28;20508;-50
2021/04/14 11:31:41;;;;;;;3.20;2.40;;;13.00;37.70;;;;;;5047580;28;20973;-50
2021/04/14 11:34:20;;;;;;;2.50;2.30;;;13.00;37.40;;;;;;5045858;28;20458;-50
2021/04/14 11:37:03;;;;;;;2.40;2.20;;;12.90;36.40;;;;;;5049495;28;20898;-50
2021/04/14 11:39:55;;;;;;;2.67;2.17;;;12.70;35.60;;;;;;5045263;28;20467;-50
2021/04/14 11:43:02;;;;;;;1.90;1.80;;;12.50;36.10;;;;;;5049664;28;20454;-50
2021/04/14 11:45:33;;;;;;;3.13;2.03;;;12.40;37.10;;;;;;5045304;28;20456;-49
2021/04/14 11:48:07;;;;;;;4.53;1.90;;;12.30;37.70;;;;;;5051420;28;20493;-49
2021/04/14 11:50:36;;;;;;;6.43;2.43;;;12.10;37.50;;;;;;5050807;28;20446;-49
2021/04/14 11:53:21;;;;;;;5.70;2.23;;;12.10;37.70;;;;;;5051206;28;20546;-49
2021/04/14 11:55:48;;;;;;;3.40;2.30;;;12.40;36.30;;;;;;5048438;28;20457;-49
2021/04/14 11:58:26;;;;;;;2.50;2.30;;;12.60;34.10;;;;;;5050214;28;20451;-49
2021/04/14 12:00:52;;;;;;;5.90;2.20;;;12.90;33.50;;;;;;5067007;28;20450;-49
2021/04/14 12:03:19;;;;;;;2.30;2.00;;;13.00;33.90;;;;;;5049355;28;21339;-50
2021/04/14 12:05:52;;;;;;;3.30;2.43;;;13.20;34.30;;;;;;5048911;28;20473;-50
2021/04/14 12:08:18;;;;;;;2.70;2.40;;;13.20;34.80;;;;;;5061600;28;20482;-50
2021/04/14 12:10:45;;;;;;;4.23;2.13;;;13.20;34.10;;;;;;5047051;28;20822;-50
2021/04/14 12:13:11;;;;;;;3.73;3.23;;;13.10;33.90;;;;;;5045995;28;20666;-50
2021/04/14 12:15:38;;;;;;;3.47;2.73;;;13.10;33.60;;;;;;5048606;28;21011;-49
2021/04/14 12:18:04;;;;;;;9.03;4.53;;;13.00;33.60;;;;;;5049149;28;20462;-49
2021/04/14 12:20:31;;;;;;;3.70;2.80;;;13.10;33.70;;;;;;5049766;28;21039;-50
2021/04/14 12:22:57;;;;;;;2.70;2.50;;;13.20;33.40;;;;;;5046381;28;20549;-49
2021/04/14 12:25:24;;;;;;;2.73;2.37;;;13.10;34.30;;;;;;5049329;28;20451;-49
2021/04/14 12:27:50;;;;;;;3.83;2.40;;;13.10;33.50;;;;;;5045367;28;20577;-50
2021/04/14 12:30:23;;;;;;;3.73;2.93;;;13.00;33.40;;;;;;5045480;28;20454;-50
2021/04/14 12:32:50;;;;;;;3.40;2.37;;;13.00;34.10;;;;;;5048252;28;20468;-49
2021/04/14 12:35:17;;;;;;;4.13;2.60;;;13.10;34.00;;;;;;5047672;28;20478;-50
2021/04/14 12:37:43;;;;;;;2.53;2.40;;;13.20;33.30;;;;;;5049651;28;20478;-50
2021/04/14 12:40:12;;;;;;;2.80;2.40;;;13.40;33.20;;;;;;5050092;28;20478;-50
2021/04/14 12:42:54;;;;;;;4.00;2.40;;;13.50;32.40;;;;;;5049681;28;20553;-50
2021/04/14 12:45:36;;;;;;;2.90;2.60;;;13.70;33.10;;;;;;5066083;28;20826;-50
2021/04/14 12:48:06;;;;;;;1.87;1.77;;;13.90;32.30;;;;;;5047543;28;21078;-50
2021/04/14 12:51:15;;;;;;;3.87;2.50;;;14.00;31.10;;;;;;5049920;28;20450;-50
2021/04/14 12:53:51;;;;;;;2.10;1.97;;;14.20;30.80;;;;;;5050413;28;20442;-50
2021/04/14 12:56:25;;;;;;;2.30;2.10;;;14.50;30.30;;;;;;5044245;28;21049;-50
2021/04/14 12:58:54;;;;;;;2.70;2.27;;;14.70;30.20;;;;;;5026651;28;20462;-50
2021/04/14 13:01:20;;;;;;;2.80;2.60;;;15.00;29.10;;;;;;5049113;28;20975;-50
2021/04/14 13:04:04;;;;;;;2.40;2.13;;;15.10;30.20;;;;;;5045644;28;20466;-49
2021/04/14 13:06:42;;;;;;;4.17;2.50;;;15.10;30.30;;;;;;5043254;28;20803;-50
2021/04/14 13:09:13;;;;;;;5.07;2.50;;;15.00;30.80;;;;;;5060605;28;20494;-50
2021/04/14 13:11:49;;;;;;;2.50;2.30;;;14.90;31.40;;;;;;5046684;28;20460;-50
2021/04/14 13:14:16;;;;;;;2.30;2.10;;;14.60;31.80;;;;;;5043877;28;20454;-49
2021/04/14 13:16:54;;;;;;;3.03;2.40;;;14.40;33.00;;;;;;5047558;28;20489;-50
2021/04/14 13:19:21;;;;;;;2.50;2.30;;;14.00;32.60;;;;;;5047427;28;20962;-50